Time;durP1;ratioP1;P1;durP2;ratioP2;P2;SDS_P1;SDS_P2;PMS_P1;PMS_P2;Temp;Humidity;BMP_temperature;BMP_pressure;BME280_temperature;BME280_humidity;BME280_pressure;Samples;Min_cycle;Max_cycle;Signal;HPM_P1;HPM_P2
2023/10/29 00:01:29;;;;;;;5.50;3.30;;;;;;;;;;5093365;28;20193;-75
2023/10/29 00:03:56;;;;;;;8.88;3.38;;;;;;;;;;5093350;28;20197;-75
2023/10/29 00:06:23;;;;;;;4.47;2.65;;;;;;;;;;5093223;28;20242;-75
2023/10/29 00:08:50;;;;;;;4.95;2.90;;;;;;;;;;5092654;28;20185;-75
2023/10/29 00:11:19;;;;;;;5.70;3.17;;;;;;;;;;5092731;28;20190;-75
2023/10/29 00:13:47;;;;;;;6.80;2.33;;;;;;;;;;5093093;28;20192;-75
2023/10/29 00:16:14;;;;;;;4.68;2.13;;;;;;;;;;5093066;28;20194;-75
2023/10/29 00:18:42;;;;;;;7.22;3.17;;;;;;;;;;5092861;28;20620;-75
2023/10/29 00:21:09;;;;;;;3.40;1.92;;;;;;;;;;5092635;28;20221;-75
2023/10/29 00:23:37;;;;;;;4.85;2.92;;;;;;;;;;5092364;28;20533;-75
2023/10/29 00:26:04;;;;;;;4.90;3.50;;;;;;;;;;5093618;28;20198;-75
2023/10/29 00:28:33;;;;;;;5.13;3.55;;;;;;;;;;5093111;28;20725;-75
2023/10/29 00:31:02;;;;;;;7.53;4.20;;;;;;;;;;5093417;28;20258;-75
2023/10/29 00:33:29;;;;;;;8.57;3.92;;;;;;;;;;5093424;28;20189;-75
2023/10/29 00:35:56;;;;;;;9.63;3.80;;;;;;;;;;5093060;28;20194;-75
2023/10/29 00:38:24;;;;;;;7.03;2.80;;;;;;;;;;5093335;28;20189;-75
2023/10/29 00:40:52;;;;;;;6.70;2.40;;;;;;;;;;5092974;28;20194;-75
2023/10/29 00:43:19;;;;;;;5.82;3.05;;;;;;;;;;5093317;28;20197;-75
2023/10/29 00:45:52;;;;;;;6.88;2.58;;;;;;;;;;5092506;28;20189;-75
2023/10/29 00:48:19;;;;;;;5.32;2.22;;;;;;;;;;5094564;28;20535;-75
2023/10/29 00:50:47;;;;;;;4.97;3.10;;;;;;;;;;5097063;28;20190;-74
2023/10/29 00:53:14;;;;;;;3.25;2.05;;;;;;;;;;5097007;28;20708;-74
2023/10/29 00:55:44;;;;;;;6.15;2.90;;;;;;;;;;5097197;28;20189;-75
2023/10/29 00:58:12;;;;;;;4.90;2.75;;;;;;;;;;5097220;28;20193;-75
2023/10/29 01:00:40;;;;;;;4.13;3.00;;;;;;;;;;5097130;28;20213;-75
2023/10/29 01:03:08;;;;;;;4.10;2.20;;;;;;;;;;5096624;28;20243;-74
2023/10/29 01:05:36;;;;;;;7.30;2.42;;;;;;;;;;5096928;28;20247;-75
2023/10/29 01:08:05;;;;;;;4.93;2.30;;;;;;;;;;5096671;28;20228;-75
2023/10/29 01:10:32;;;;;;;3.85;2.22;;;;;;;;;;5096637;28;20197;-75
2023/10/29 01:12:59;;;;;;;5.70;2.95;;;;;;;;;;5096710;28;20186;-75
2023/10/29 01:15:27;;;;;;;4.45;2.35;;;;;;;;;;5096954;28;20235;-75
2023/10/29 01:17:54;;;;;;;6.15;2.20;;;;;;;;;;5096154;28;20639;-75
2023/10/29 01:20:23;;;;;;;4.85;2.28;;;;;;;;;;5096672;28;20267;-75
2023/10/29 01:22:50;;;;;;;5.40;2.38;;;;;;;;;;5096687;28;20189;-75
2023/10/29 01:25:17;;;;;;;3.33;1.70;;;;;;;;;;5096353;28;20620;-75
2023/10/29 01:27:45;;;;;;;5.35;2.13;;;;;;;;;;5096714;28;20247;-75
2023/10/29 01:30:13;;;;;;;3.97;2.08;;;;;;;;;;5096993;28;20197;-75
2023/10/29 01:32:40;;;;;;;5.07;2.35;;;;;;;;;;5076037;28;20201;-75
2023/10/29 01:35:07;;;;;;;3.33;1.67;;;;;;;;;;5075997;28;20235;-75
2023/10/29 01:37:36;;;;;;;4.60;2.22;;;;;;;;;;5075949;28;20198;-75
2023/10/29 01:40:03;;;;;;;6.55;1.80;;;;;;;;;;5089856;28;20283;-75
2023/10/29 01:42:31;;;;;;;2.78;1.55;;;;;;;;;;5096470;28;20203;-75
2023/10/29 01:44:58;;;;;;;6.05;2.15;;;9.80;76.00;;;;;;5096412;28;20254;-75
2023/10/29 01:47:25;;;;;;;6.10;1.90;;;8.20;83.90;;;;;;5095683;28;20716;-75
2023/10/29 01:49:52;;;;;;;2.75;1.60;;;8.10;82.10;;;;;;5096225;28;20603;-75
2023/10/29 01:52:19;;;;;;;3.80;1.65;;;8.10;81.70;;;;;;5095889;28;20193;-75
2023/10/29 01:54:47;;;;;;;2.80;1.42;;;8.00;81.60;;;;;;5095751;28;20185;-75
2023/10/29 01:57:14;;;;;;;3.03;1.60;;;8.00;82.40;;;;;;5095438;28;20705;-74
2023/10/29 01:59:41;;;;;;;5.15;1.70;;;8.00;82.10;;;;;;5095345;28;20214;-75
2023/10/29 02:02:09;;;;;;;3.90;1.50;;;8.00;82.40;;;;;;5095731;28;20187;-75
2023/10/29 02:04:36;;;;;;;5.80;2.42;;;8.00;82.20;;;;;;5096006;28;20193;-74
2023/10/29 02:07:03;;;;;;;4.72;1.95;;;7.90;82.00;;;;;;5095660;28;20640;-74
2023/10/29 02:09:30;;;;;;;3.08;1.30;;;7.90;82.40;;;;;;5095505;28;20250;-74
2023/10/29 02:11:59;;;;;;;3.95;1.63;;;7.90;83.40;;;;;;5095371;28;20280;-75
2023/10/29 02:14:29;;;;;;;3.00;1.60;;;7.90;84.00;;;;;;5095814;28;20190;-75
2023/10/29 02:16:56;;;;;;;2.53;1.20;;;7.90;84.40;;;;;;5095438;28;20189;-75
2023/10/29 02:19:24;;;;;;;2.95;1.30;;;8.00;83.70;;;;;;5095672;28;20295;-75
2023/10/29 02:21:56;;;;;;;4.20;1.92;;;8.00;83.20;;;;;;5095173;28;20194;-75
2023/10/29 02:24:22;;;;;;;4.85;2.42;;;7.90;83.00;;;;;;5094907;28;20178;-75
2023/10/29 02:26:49;;;;;;;3.80;2.05;;;7.90;84.00;;;;;;5095218;28;20194;-74
2023/10/29 02:29:16;;;;;;;3.90;2.22;;;7.90;84.50;;;;;;5095515;28;20262;-75
2023/10/29 02:31:43;;;;;;;4.30;2.38;;;7.90;84.50;;;;;;5095176;28;20190;-75
2023/10/29 02:34:11;;;;;;;3.90;1.90;;;7.90;83.70;;;;;;5095102;28;20189;-74
2023/10/29 02:36:38;;;;;;;3.45;1.58;;;7.90;84.00;;;;;;5095072;28;20201;-74
2023/10/29 02:39:07;;;;;;;3.28;1.75;;;7.80;84.90;;;;;;5095285;28;20318;-75
2023/10/29 02:41:34;;;;;;;3.72;1.80;;;7.80;85.80;;;;;;5094988;28;20240;-74
2023/10/29 02:44:01;;;;;;;7.82;2.20;;;7.70;86.00;;;;;;5094914;28;20190;-74
2023/10/29 02:46:28;;;;;;;7.30;2.20;;;7.80;86.00;;;;;;5094000;28;20231;-75
2023/10/29 02:48:55;;;;;;;7.07;2.58;;;7.70;86.10;;;;;;5095098;28;20194;-75
2023/10/29 02:51:22;;;;;;;3.60;1.58;;;7.80;87.00;;;;;;5095074;28;20198;-74
2023/10/29 02:53:49;;;;;;;3.70;2.20;;;7.80;87.40;;;;;;5094720;28;20186;-75
2023/10/29 02:56:17;;;;;;;3.15;2.03;;;7.80;87.80;;;;;;5094969;28;20189;-75
2023/10/29 02:58:58;;;;;;;3.70;2.05;;;7.80;87.40;;;;;;5094259;28;20207;-74
2023/10/29 03:01:27;;;;;;;3.85;1.90;;;7.80;86.90;;;;;;5094788;28;20607;-75
2023/10/29 03:03:54;;;;;;;4.32;2.13;;;7.80;87.10;;;;;;5094759;28;20221;-75
2023/10/29 03:06:21;;;;;;;3.00;1.73;;;7.70;87.70;;;;;;5094574;28;20691;-74
2023/10/29 03:08:48;;;;;;;3.10;1.60;;;7.80;87.80;;;;;;5094654;28;20189;-75
2023/10/29 03:11:17;;;;;;;6.68;1.65;;;7.80;87.20;;;;;;5094031;28;20197;-75
2023/10/29 03:13:44;;;;;;;3.40;1.95;;;7.80;87.70;;;;;;5093991;28;20185;-75
2023/10/29 03:16:11;;;;;;;3.50;2.10;;;7.80;87.80;;;;;;5094269;28;20278;-75
2023/10/29 03:18:38;;;;;;;3.10;1.90;;;7.80;87.70;;;;;;5093901;28;20193;-74
2023/10/29 03:21:05;;;;;;;3.08;1.70;;;7.80;88.50;;;;;;5093666;28;20213;-74
2023/10/29 03:23:32;;;;;;;3.03;1.45;;;7.80;88.80;;;;;;5094164;28;20243;-75
2023/10/29 03:26:02;;;;;;;12.52;3.95;;;7.80;89.20;;;;;;5094083;28;20197;-74
2023/10/29 03:28:31;;;;;;;3.58;1.80;;;7.80;89.40;;;;;;5094062;28;20194;-75
2023/10/29 03:30:58;;;;;;;2.95;1.45;;;7.90;89.60;;;;;;5094376;28;20189;-75
2023/10/29 03:33:25;;;;;;;9.63;2.85;;;7.90;89.30;;;;;;5094010;28;20186;-75
2023/10/29 03:35:52;;;;;;;5.13;1.50;;;8.00;89.10;;;;;;5093735;28;20597;-75
2023/10/29 03:38:19;;;;;;;3.00;1.30;;;8.00;89.20;;;;;;5093849;28;20190;-75
2023/10/29 03:40:46;;;;;;;4.22;2.20;;;8.00;89.20;;;;;;5093469;28;20240;-75
2023/10/29 03:43:13;;;;;;;5.13;2.40;;;8.00;89.20;;;;;;5094113;28;20262;-75
2023/10/29 03:45:41;;;;;;;4.53;1.73;;;8.10;89.20;;;;;;5094199;28;20197;-75
2023/10/29 03:48:08;;;;;;;7.30;3.65;;;8.10;89.20;;;;;;5093634;28;20250;-75
2023/10/29 03:50:35;;;;;;;4.82;2.97;;;8.10;89.10;;;;;;5093908;28;20524;-75
2023/10/29 03:53:02;;;;;;;8.93;2.25;;;8.10;88.80;;;;;;5093961;28;20189;-75
2023/10/29 03:55:30;;;;;;;3.35;1.45;;;8.00;87.90;;;;;;5093468;28;20235;-75
2023/10/29 03:57:57;;;;;;;2.40;1.20;;;7.90;86.40;;;;;;5093488;28;20197;-75
2023/10/29 04:00:24;;;;;;;2.30;1.10;;;7.90;86.20;;;;;;5093694;28;20263;-75
2023/10/29 04:02:52;;;;;;;3.00;1.40;;;7.90;86.40;;;;;;5093880;28;20247;-74
2023/10/29 04:05:19;;;;;;;2.72;1.65;;;7.90;86.90;;;;;;5093415;28;20251;-75
2023/10/29 04:07:46;;;;;;;3.78;2.40;;;7.90;88.20;;;;;;5093377;28;20561;-75
2023/10/29 04:10:13;;;;;;;2.85;1.20;;;7.90;88.00;;;;;;5093187;28;20189;-75
2023/10/29 04:12:40;;;;;;;4.30;1.45;;;7.90;86.30;;;;;;5092532;28;20189;-75
2023/10/29 04:15:08;;;;;;;3.55;1.65;;;7.80;84.40;;;;;;5093595;28;20297;-75
2023/10/29 04:17:35;;;;;;;3.88;1.65;;;7.80;83.60;;;;;;5093256;28;20197;-75
2023/10/29 04:20:05;;;;;;;3.33;1.60;;;7.70;83.80;;;;;;5093339;28;20221;-75
2023/10/29 04:22:32;;;;;;;4.85;1.58;;;7.60;83.70;;;;;;5093488;28;20216;-75
2023/10/29 04:24:59;;;;;;;2.95;1.55;;;7.50;83.30;;;;;;5092704;28;20658;-75
2023/10/29 04:27:29;;;;;;;3.88;1.33;;;7.40;83.80;;;;;;5093596;28;20532;-74
2023/10/29 04:29:56;;;;;;;3.65;1.45;;;7.30;84.30;;;;;;5092845;28;20219;-74
2023/10/29 04:32:23;;;;;;;4.25;1.33;;;7.30;85.80;;;;;;5093139;28;20250;-75
2023/10/29 04:34:51;;;;;;;3.50;1.52;;;7.30;85.60;;;;;;5093137;28;20189;-74
2023/10/29 04:37:19;;;;;;;3.13;1.60;;;7.30;86.20;;;;;;5093221;28;20238;-75
2023/10/29 04:39:49;;;;;;;2.45;1.38;;;7.30;86.60;;;;;;5092897;28;20188;-74
2023/10/29 04:42:16;;;;;;;3.35;1.45;;;7.30;86.90;;;;;;5093356;28;20189;-75
2023/10/29 04:44:43;;;;;;;3.30;1.80;;;7.30;87.00;;;;;;5093384;28;20193;-75
2023/10/29 04:47:10;;;;;;;4.45;1.80;;;7.30;86.50;;;;;;5093352;28;20597;-75
2023/10/29 04:49:37;;;;;;;3.40;1.80;;;7.20;86.50;;;;;;5092947;28;20182;-75
2023/10/29 04:52:04;;;;;;;3.20;1.45;;;7.20;86.50;;;;;;5092989;28;20194;-75
2023/10/29 04:54:32;;;;;;;6.32;2.22;;;7.20;86.00;;;;;;5092836;28;20640;-74
2023/10/29 04:56:59;;;;;;;4.10;1.98;;;7.20;85.20;;;;;;5092902;28;20190;-75
2023/10/29 04:59:26;;;;;;;7.45;3.50;;;7.10;84.80;;;;;;5092899;28;20708;-75
2023/10/29 05:01:54;;;;;;;9.32;3.58;;;7.20;84.70;;;;;;5093165;28;20215;-75
2023/10/29 05:04:21;;;;;;;7.53;3.10;;;7.10;84.20;;;;;;5093196;28;20189;-75
2023/10/29 05:06:48;;;;;;;7.82;3.90;;;7.00;84.00;;;;;;5092788;28;20197;-75
2023/10/29 05:09:21;;;;;;;6.55;3.15;;;7.00;85.00;;;;;;5093007;28;20192;-75
2023/10/29 05:11:49;;;;;;;11.02;4.50;;;7.00;85.50;;;;;;5092367;28;20189;-75
2023/10/29 05:14:16;;;;;;;6.47;3.75;;;7.00;85.70;;;;;;5092816;28;20186;-75
2023/10/29 05:16:43;;;;;;;5.97;3.63;;;7.00;86.00;;;;;;5093055;28;20239;-75
2023/10/29 05:19:10;;;;;;;4.85;3.20;;;7.00;85.80;;;;;;5092624;28;20250;-75
2023/10/29 05:21:37;;;;;;;5.60;3.17;;;7.00;84.70;;;;;;5092277;28;20666;-75
2023/10/29 05:24:05;;;;;;;4.88;2.67;;;6.90;84.30;;;;;;5092773;28;20247;-75
2023/10/29 05:26:32;;;;;;;4.65;3.55;;;6.80;83.70;;;;;;5092464;28;20285;-75
2023/10/29 05:29:00;;;;;;;4.70;2.20;;;6.80;84.30;;;;;;5092567;28;20189;-75
2023/10/29 05:31:27;;;;;;;3.88;1.98;;;6.70;84.90;;;;;;5091895;28;20184;-75
2023/10/29 05:34:09;;;;;;;4.15;2.42;;;6.70;85.20;;;;;;5092539;28;20192;-75
2023/10/29 05:36:36;;;;;;;8.13;2.60;;;6.70;85.40;;;;;;5095613;28;20178;-75
2023/10/29 05:39:05;;;;;;;6.40;3.20;;;6.70;85.60;;;;;;5096399;28;20197;-75
2023/10/29 05:41:31;;;;;;;3.60;2.17;;;6.70;85.90;;;;;;5096051;28;20697;-75
2023/10/29 05:44:00;;;;;;;6.63;2.80;;;6.70;86.30;;;;;;5095718;28;20185;-74
2023/10/29 05:46:27;;;;;;;6.38;2.63;;;6.70;86.60;;;;;;5095883;28;20246;-75
2023/10/29 05:48:54;;;;;;;4.63;2.35;;;6.70;85.60;;;;;;5096267;28;20644;-75
2023/10/29 05:51:21;;;;;;;7.53;4.10;;;6.70;84.40;;;;;;5095766;28;20666;-75
2023/10/29 05:53:48;;;;;;;3.83;2.80;;;6.70;83.90;;;;;;5096173;28;20190;-75
2023/10/29 05:56:15;;;;;;;3.95;2.70;;;6.70;83.90;;;;;;5095531;28;20185;-75
2023/10/29 05:58:42;;;;;;;5.18;2.85;;;6.70;84.70;;;;;;5095764;28;20628;-75
2023/10/29 06:01:11;;;;;;;7.85;4.30;;;6.70;84.60;;;;;;5095337;28;20750;-75
2023/10/29 06:03:38;;;;;;;6.82;3.85;;;6.60;85.40;;;;;;5095537;28;20658;-74
2023/10/29 06:06:05;;;;;;;6.70;3.55;;;6.60;86.20;;;;;;5095327;28;20247;-75
2023/10/29 06:08:32;;;;;;;7.65;4.43;;;6.70;86.80;;;;;;5094983;28;20576;-75
2023/10/29 06:11:00;;;;;;;9.52;4.95;;;6.70;87.00;;;;;;5094723;28;20239;-75
2023/10/29 06:13:27;;;;;;;8.63;5.45;;;6.80;87.40;;;;;;5095319;28;20202;-75
2023/10/29 06:15:54;;;;;;;12.50;5.70;;;6.90;87.70;;;;;;5095128;28;20247;-75
2023/10/29 06:18:22;;;;;;;9.07;6.50;;;6.90;88.00;;;;;;5095431;28;20541;-75
2023/10/29 06:20:53;;;;;;;9.30;4.88;;;7.00;88.10;;;;;;5094186;28;20752;-75
2023/10/29 06:23:20;;;;;;;10.90;4.93;;;7.10;88.20;;;;;;5095414;28;20247;-75
2023/10/29 06:25:47;;;;;;;7.45;4.38;;;7.10;87.30;;;;;;5094809;28;20262;-75
2023/10/29 06:28:14;;;;;;;6.13;4.55;;;7.10;86.60;;;;;;5095202;28;20555;-75
2023/10/29 06:30:41;;;;;;;10.52;5.60;;;7.20;87.00;;;;;;5095185;28;20262;-75
2023/10/29 06:33:08;;;;;;;11.77;7.15;;;7.20;87.20;;;;;;5094604;28;20185;-75
2023/10/29 06:35:38;;;;;;;8.02;5.25;;;7.40;87.70;;;;;;5094993;28;20189;-75
2023/10/29 06:38:05;;;;;;;6.75;4.47;;;7.70;88.40;;;;;;5095267;28;20274;-75
2023/10/29 06:40:32;;;;;;;5.25;2.72;;;8.10;87.50;;;;;;5094402;28;20251;-75
2023/10/29 06:43:04;;;;;;;5.53;2.97;;;8.30;84.60;;;;;;5094789;28;20674;-75
2023/10/29 06:45:31;;;;;;;6.57;3.85;;;8.40;82.70;;;;;;5094270;28;20616;-75
2023/10/29 06:47:58;;;;;;;6.40;4.25;;;8.50;82.20;;;;;;5094250;28;20189;-75
2023/10/29 06:50:25;;;;;;;5.55;3.20;;;8.60;81.70;;;;;;5094961;28;20280;-75
2023/10/29 06:52:54;;;;;;;5.15;4.03;;;8.90;81.70;;;;;;5094778;28;20598;-75
2023/10/29 06:55:23;;;;;;;5.40;3.55;;;9.10;80.70;;;;;;5094437;28;20225;-75
2023/10/29 06:57:50;;;;;;;8.32;4.93;;;9.30;79.30;;;;;;5094072;28;20281;-75
2023/10/29 07:00:17;;;;;;;7.65;4.63;;;9.50;79.00;;;;;;5094413;28;20284;-76
2023/10/29 07:02:47;;;;;;;8.38;3.97;;;9.90;78.60;;;;;;5094218;28;20213;-75
2023/10/29 07:05:14;;;;;;;6.68;3.83;;;10.10;75.70;;;;;;5094311;28;20277;-75
2023/10/29 07:07:41;;;;;;;5.13;3.83;;;10.40;74.00;;;;;;5094390;28;20185;-75
2023/10/29 07:10:10;;;;;;;5.97;4.38;;;10.80;73.80;;;;;;5093718;28;20189;-76
2023/10/29 07:12:37;;;;;;;4.38;3.35;;;11.20;72.90;;;;;;5094601;28;20239;-76
2023/10/29 07:15:05;;;;;;;5.50;3.92;;;11.70;72.10;;;;;;5094063;28;20243;-76
2023/10/29 07:17:32;;;;;;;6.07;2.85;;;12.20;70.20;;;;;;5094393;28;20239;-76
2023/10/29 07:19:59;;;;;;;12.73;3.60;;;12.50;69.00;;;;;;5094018;28;20225;-76
2023/10/29 07:22:26;;;;;;;4.55;2.95;;;12.80;67.20;;;;;;5093664;28;20227;-76
2023/10/29 07:24:53;;;;;;;3.58;2.25;;;12.90;65.80;;;;;;5094148;28;20215;-76
2023/10/29 07:27:22;;;;;;;4.45;2.88;;;13.00;65.20;;;;;;5093858;28;20225;-76
2023/10/29 07:29:49;;;;;;;4.43;2.78;;;13.00;65.10;;;;;;5093624;28;20186;-76
2023/10/29 07:32:16;;;;;;;3.72;2.40;;;13.00;65.20;;;;;;5093504;28;20658;-76
2023/10/29 07:34:44;;;;;;;3.27;1.87;;;13.30;64.50;;;;;;5093786;28;20628;-76
2023/10/29 07:37:12;;;;;;;5.23;2.03;;;13.80;63.50;;;;;;5093687;28;20436;-76
2023/10/29 07:39:42;;;;;;;3.53;1.83;;;14.20;62.10;;;;;;5094366;28;20484;-76
2023/10/29 07:42:17;;;;;;;6.03;2.27;;;14.60;61.00;;;;;;5093773;28;20509;-76
2023/10/29 07:44:46;;;;;;;3.00;1.67;;;15.00;60.00;;;;;;5093705;28;20439;-76
2023/10/29 07:47:13;;;;;;;3.60;2.10;;;15.40;58.90;;;;;;5093815;28;20428;-76
2023/10/29 07:49:41;;;;;;;5.47;2.23;;;15.70;57.30;;;;;;5093336;28;20435;-76
2023/10/29 07:52:08;;;;;;;2.73;1.60;;;15.80;55.90;;;;;;5093406;28;20488;-76
2023/10/29 07:54:35;;;;;;;3.90;1.70;;;15.80;55.80;;;;;;5093558;28;20432;-76
2023/10/29 07:57:02;;;;;;;5.00;1.93;;;15.90;55.60;;;;;;5092442;28;20481;-76
2023/10/29 07:59:29;;;;;;;3.37;2.20;;;16.20;54.10;;;;;;5092560;28;20922;-76
2023/10/29 08:01:57;;;;;;;3.33;2.30;;;16.40;53.60;;;;;;5093122;28;20474;-76
2023/10/29 08:04:26;;;;;;;3.63;2.10;;;16.80;53.00;;;;;;5093206;28;20485;-76
2023/10/29 08:06:53;;;;;;;7.20;3.87;;;17.00;52.70;;;;;;5093204;28;20428;-76
2023/10/29 08:09:23;;;;;;;5.87;3.80;;;17.20;51.70;;;;;;5093061;28;20447;-76
2023/10/29 08:11:50;;;;;;;4.07;2.90;;;17.50;51.40;;;;;;5093688;28;20439;-76
2023/10/29 08:14:17;;;;;;;4.73;2.93;;;18.00;51.90;;;;;;5090793;28;20995;-76
2023/10/29 08:16:44;;;;;;;5.00;3.53;;;18.40;50.90;;;;;;5092802;28;20521;-76
2023/10/29 08:19:13;;;;;;;6.03;4.00;;;18.80;50.10;;;;;;5092626;28;20787;-76
2023/10/29 08:21:40;;;;;;;5.77;4.43;;;19.30;49.80;;;;;;5092316;28;20467;-76
2023/10/29 08:24:08;;;;;;;5.87;3.73;;;19.60;48.50;;;;;;5090856;28;20452;-76
2023/10/29 08:26:35;;;;;;;5.50;4.50;;;19.90;47.70;;;;;;5090883;28;20444;-76
2023/10/29 08:29:02;;;;;;;5.70;3.97;;;20.10;46.40;;;;;;5092090;28;20485;-76
2023/10/29 08:31:29;;;;;;;5.23;3.90;;;20.30;46.40;;;;;;5092382;28;20443;-76
2023/10/29 08:33:56;;;;;;;7.83;5.07;;;20.40;46.40;;;;;;5091624;28;20466;-76
2023/10/29 08:36:25;;;;;;;5.23;3.33;;;20.50;45.70;;;;;;5092560;28;20431;-76
2023/10/29 08:38:52;;;;;;;5.73;3.27;;;20.60;45.30;;;;;;5092508;28;20428;-76
2023/10/29 08:41:20;;;;;;;5.30;3.33;;;20.80;45.80;;;;;;5092116;28;20773;-75
2023/10/29 08:43:47;;;;;;;5.83;3.53;;;21.10;46.10;;;;;;5092308;28;20782;-76
2023/10/29 08:46:14;;;;;;;2.93;2.10;;;21.50;45.10;;;;;;5091654;28;20465;-76
2023/10/29 08:48:41;;;;;;;7.50;2.47;;;21.90;43.30;;;;;;5091812;28;20440;-76
2023/10/29 08:51:08;;;;;;;5.40;2.20;;;22.40;43.00;;;;;;5092774;28;20854;-76
2023/10/29 08:53:37;;;;;;;4.43;1.90;;;22.70;41.30;;;;;;5084057;28;20439;-77
2023/10/29 08:56:04;;;;;;;8.70;2.80;;;22.90;41.80;;;;;;5091592;28;20434;-76
2023/10/29 08:58:31;;;;;;;5.57;2.60;;;23.00;41.30;;;;;;5091663;28;20439;-76
2023/10/29 09:00:59;;;;;;;3.20;1.83;;;23.10;41.30;;;;;;5091433;28;20447;-76
2023/10/29 09:03:27;;;;;;;4.80;2.33;;;23.20;41.50;;;;;;5091357;28;20835;-76
2023/10/29 09:06:03;;;;;;;3.30;1.53;;;23.40;40.80;;;;;;5092632;28;20432;-76
2023/10/29 09:08:30;;;;;;;3.00;1.80;;;23.60;41.00;;;;;;5092406;28;20415;-76
2023/10/29 09:10:59;;;;;;;4.60;1.80;;;23.60;41.60;;;;;;5094486;28;20431;-76
2023/10/29 09:13:26;;;;;;;3.87;3.20;;;23.60;40.60;;;;;;5094626;28;20545;-76
2023/10/29 09:15:53;;;;;;;3.87;1.63;;;23.30;40.60;;;;;;5096107;28;20514;-75
2023/10/29 09:18:21;;;;;;;5.27;1.83;;;22.90;41.30;;;;;;5096359;28;20436;-76
2023/10/29 09:20:49;;;;;;;5.33;1.87;;;22.60;42.70;;;;;;5096063;28;20463;-76
2023/10/29 09:23:16;;;;;;;2.90;1.77;;;22.70;43.40;;;;;;5095523;28;20479;-76
2023/10/29 09:25:45;;;;;;;4.50;2.17;;;23.30;43.20;;;;;;5095984;28;20496;-76
2023/10/29 09:28:14;;;;;;;5.00;2.60;;;24.00;42.80;;;;;;5095955;28;20891;-76
2023/10/29 09:30:41;;;;;;;4.50;2.83;;;24.80;42.50;;;;;;5095696;28;20435;-76
2023/10/29 09:33:09;;;;;;;5.60;2.37;;;25.90;40.40;;;;;;5095093;28;20508;-76
2023/10/29 09:35:37;;;;;;;4.10;2.20;;;26.80;38.30;;;;;;5095707;28;20798;-76
2023/10/29 09:38:04;;;;;;;4.47;2.17;;;28.00;36.00;;;;;;5095616;28;20912;-76
2023/10/29 09:40:32;;;;;;;4.30;2.27;;;29.40;33.70;;;;;;5095434;28;20907;-76
2023/10/29 09:43:04;;;;;;;3.90;2.03;;;30.90;31.50;;;;;;5095498;28;20535;-76
2023/10/29 09:45:38;;;;;;;3.90;1.90;;;31.70;28.90;;;;;;5095436;28;20892;-77
2023/10/29 09:48:08;;;;;;;3.50;2.20;;;32.20;28.60;;;;;;5096045;28;20438;-77
2023/10/29 09:50:35;;;;;;;3.53;2.50;;;34.00;27.60;;;;;;5095506;28;20447;-78
2023/10/29 09:53:03;;;;;;;11.20;2.17;;;35.10;25.50;;;;;;5094885;28;20434;-78
2023/10/29 09:55:35;;;;;;;4.27;1.90;;;35.60;24.00;;;;;;5095472;28;20439;-78
2023/10/29 09:58:16;;;;;;;4.20;2.03;;;36.20;20.90;;;;;;5095188;28;20472;-78
2023/10/29 10:00:48;;;;;;;4.00;2.07;;;36.00;19.30;;;;;;5094947;28;20521;-77
2023/10/29 10:03:15;;;;;;;4.23;1.40;;;36.60;19.20;;;;;;5094837;28;20467;-78
2023/10/29 10:05:47;;;;;;;3.77;1.33;;;36.90;16.40;;;;;;5095444;28;20439;-78
2023/10/29 10:08:24;;;;;;;2.53;1.00;;;36.90;15.10;;;;;;5094064;28;20506;-78
2023/10/29 10:10:54;;;;;;;7.50;1.57;;;36.90;15.70;;;;;;5095157;28;20450;-78
2023/10/29 10:13:36;;;;;;;2.17;0.70;;;37.90;15.00;;;;;;5093790;28;20478;-78
2023/10/29 10:16:08;;;;;;;2.50;1.20;;;38.90;13.30;;;;;;5094249;28;20438;-77
2023/10/29 10:18:50;;;;;;;2.60;0.97;;;39.40;11.70;;;;;;5095403;28;20770;-78
2023/10/29 10:21:21;;;;;;;4.50;1.10;;;38.70;13.10;;;;;;5094543;28;20470;-78
2023/10/29 10:23:49;;;;;;;2.73;0.70;;;38.80;11.60;;;;;;5094593;28;20481;-78
2023/10/29 10:26:28;;;;;;;2.00;0.70;;;38.20;11.90;;;;;;5094724;28;20439;-78
2023/10/29 10:28:59;;;;;;;3.20;0.80;;;38.60;13.50;;;;;;5095141;28;20941;-78
2023/10/29 10:31:28;;;;;;;2.20;0.77;;;39.40;11.00;;;;;;5093951;28;20836;-78
2023/10/29 10:34:13;;;;;;;7.77;0.90;;;38.70;10.40;;;;;;5094682;28;20478;-77
2023/10/29 10:36:41;;;;;;;2.97;0.73;;;37.00;11.40;;;;;;5094640;28;20478;-77
2023/10/29 10:39:09;;;;;;;2.13;0.70;;;36.40;12.50;;;;;;5092875;28;20467;-78
2023/10/29 10:41:43;;;;;;;2.63;0.73;;;36.30;12.90;;;;;;5094463;28;20997;-78
2023/10/29 10:44:13;;;;;;;2.00;0.70;;;36.40;12.10;;;;;;5093771;28;20494;-78
2023/10/29 10:46:49;;;;;;;2.00;0.70;;;36.90;13.00;;;;;;5092994;28;21221;-77
2023/10/29 10:49:21;;;;;;;4.07;0.70;;;37.40;12.30;;;;;;5093196;28;20927;-79
2023/10/29 10:51:50;;;;;;;2.40;0.80;;;37.50;13.60;;;;;;5094732;28;20415;-78
2023/10/29 10:54:21;;;;;;;1.97;0.63;;;38.00;12.60;;;;;;5094430;28;20454;-78
2023/10/29 10:56:53;;;;;;;2.53;0.50;;;38.40;12.30;;;;;;5094590;28;20443;-78
2023/10/29 10:59:21;;;;;;;2.13;0.80;;;37.50;12.10;;;;;;5094222;28;20894;-78
2023/10/29 11:01:50;;;;;;;2.10;0.80;;;35.90;12.70;;;;;;5094214;28;20443;-78
2023/10/29 11:04:19;;;;;;;3.40;0.70;;;34.40;13.50;;;;;;5093980;28;20801;-78
2023/10/29 11:06:46;;;;;;;2.30;1.20;;;33.40;14.00;;;;;;5093756;28;20439;-77
2023/10/29 11:09:17;;;;;;;2.60;1.13;;;32.40;14.90;;;;;;5092920;28;20450;-77
2023/10/29 11:11:51;;;;;;;2.70;0.80;;;32.20;14.90;;;;;;5094153;28;20419;-77
2023/10/29 11:14:20;;;;;;;3.27;1.10;;;32.40;14.90;;;;;;5094408;28;20411;-77
2023/10/29 11:16:51;;;;;;;3.07;0.80;;;32.60;14.40;;;;;;5093900;28;20426;-77
2023/10/29 11:19:42;;;;;;;2.50;0.90;;;31.70;14.00;;;;;;5093539;28;20521;-77
2023/10/29 11:22:17;;;;;;;2.80;0.70;;;30.50;15.20;;;;;;5093712;28;20786;-77
2023/10/29 11:25:17;;;;;;;2.70;0.80;;;29.50;15.90;;;;;;5093622;28;20435;-77
2023/10/29 11:27:46;;;;;;;2.63;0.70;;;28.80;17.50;;;;;;5031238;28;20472;-77
2023/10/29 11:30:16;;;;;;;3.03;0.73;;;28.20;17.90;;;;;;5079803;28;20432;-77
2023/10/29 11:32:46;;;;;;;2.67;1.13;;;27.60;18.40;;;;;;5089296;28;20563;-76
2023/10/29 11:35:21;;;;;;;2.93;0.60;;;27.00;19.00;;;;;;5075684;28;20470;-76
2023/10/29 11:37:50;;;;;;;1.90;0.63;;;26.40;19.10;;;;;;5092440;28;20438;-76
2023/10/29 11:40:35;;;;;;;2.90;0.70;;;25.70;20.60;;;;;;5093137;28;20447;-76
2023/10/29 11:43:16;;;;;;;2.47;1.37;;;25.10;20.90;;;;;;5092850;28;20520;-76
2023/10/29 11:46:02;;;;;;;3.33;0.83;;;24.60;21.80;;;;;;5092668;28;20809;-76
2023/10/29 11:48:31;;;;;;;2.00;0.70;;;24.30;22.80;;;;;;5093793;28;20455;-76
2023/10/29 11:51:18;;;;;;;2.23;0.73;;;24.00;22.90;;;;;;5093169;28;20560;-76
2023/10/29 11:53:46;;;;;;;5.90;1.00;;;23.80;23.50;;;;;;5088071;28;20460;-76
2023/10/29 11:56:13;;;;;;;2.90;1.23;;;23.60;23.30;;;;;;5092446;28;20435;-76
2023/10/29 11:58:40;;;;;;;3.60;1.00;;;23.50;24.00;;;;;;5092253;28;20431;-76
2023/10/29 12:01:08;;;;;;;2.30;0.90;;;23.40;23.80;;;;;;5092461;28;20478;-77
2023/10/29 12:03:39;;;;;;;4.23;0.70;;;23.30;23.90;;;;;;5092175;28;20467;-76
2023/10/29 12:06:07;;;;;;;2.53;0.97;;;23.30;23.60;;;;;;5093106;28;20424;-76
2023/10/29 12:08:34;;;;;;;2.60;0.77;;;23.50;23.80;;;;;;5092880;28;20443;-76
2023/10/29 12:11:01;;;;;;;2.20;0.60;;;23.90;23.90;;;;;;5092354;28;20436;-76
2023/10/29 12:13:41;;;;;;;2.00;0.60;;;24.80;23.60;;;;;;5091996;28;21047;-76
2023/10/29 12:16:09;;;;;;;2.70;0.80;;;25.90;21.60;;;;;;5093467;28;20415;-76
2023/10/29 12:18:38;;;;;;;2.50;0.83;;;26.40;21.70;;;;;;5092744;28;20446;-76
2023/10/29 12:21:08;;;;;;;2.20;0.70;;;26.60;21.00;;;;;;5092093;28;20462;-76
2023/10/29 12:23:36;;;;;;;3.50;0.67;;;26.70;20.90;;;;;;5092112;28;20445;-76
2023/10/29 12:26:06;;;;;;;1.90;0.60;;;27.10;21.20;;;;;;5092238;28;20439;-76
2023/10/29 12:28:34;;;;;;;2.30;0.80;;;27.60;20.20;;;;;;5093424;28;20435;-76
2023/10/29 12:31:01;;;;;;;2.00;0.60;;;28.00;19.30;;;;;;5092107;28;20504;-76
2023/10/29 12:33:31;;;;;;;3.40;1.10;;;28.60;19.20;;;;;;5091110;28;20482;-76
2023/10/29 12:36:00;;;;;;;3.40;0.80;;;29.20;19.30;;;;;;5092510;28;20496;-76
2023/10/29 12:38:28;;;;;;;2.27;0.80;;;29.60;19.20;;;;;;5091794;28;20445;-76
2023/10/29 12:41:08;;;;;;;2.43;0.70;;;29.30;19.30;;;;;;5092489;28;20431;-76
2023/10/29 12:43:37;;;;;;;2.97;0.70;;;29.10;19.10;;;;;;5091955;28;20448;-76
2023/10/29 12:46:05;;;;;;;3.93;0.70;;;29.50;19.60;;;;;;5097278;28;20838;-77
2023/10/29 12:48:32;;;;;;;2.60;0.90;;;30.50;18.70;;;;;;5096060;28;20925;-77
2023/10/29 12:51:00;;;;;;;2.10;0.73;;;31.70;17.70;;;;;;5096685;28;21000;-77
2023/10/29 12:53:30;;;;;;;2.97;0.90;;;33.20;17.40;;;;;;5096471;28;20516;-77
2023/10/29 12:55:59;;;;;;;1.90;0.70;;;34.50;15.90;;;;;;5096852;28;20468;-77
2023/10/29 12:58:28;;;;;;;2.10;0.70;;;35.10;14.80;;;;;;5096573;28;20489;-77
2023/10/29 13:00:59;;;;;;;3.13;0.80;;;35.00;14.80;;;;;;5096116;28;20512;-77
2023/10/29 13:03:26;;;;;;;2.83;0.60;;;34.40;14.80;;;;;;5096501;28;20433;-77
2023/10/29 13:05:54;;;;;;;2.57;0.60;;;33.30;15.10;;;;;;5096086;28;20481;-77
2023/10/29 13:08:23;;;;;;;2.70;0.80;;;32.70;15.30;;;;;;5096287;28;20457;-76
2023/10/29 13:10:52;;;;;;;2.20;0.60;;;32.30;15.50;;;;;;5095791;28;20427;-76
2023/10/29 13:13:19;;;;;;;2.60;0.70;;;31.90;15.70;;;;;;5096071;28;20814;-76